Time;durP1;ratioP1;P1;durP2;ratioP2;P2;SDS_P1;SDS_P2;PMS_P1;PMS_P2;Temp;Humidity;BMP_temperature;BMP_pressure;BME280_temperature;BME280_humidity;BME280_pressure;Samples;Min_cycle;Max_cycle;Signal;HPM_P1;HPM_P2
2023/06/01 00:00:16;;;;;;;7.43;7.03;;;19.70;9.60;;;;;;4992366;28;20413;-73
2023/06/01 00:02:42;;;;;;;7.37;6.87;;;19.70;9.50;;;;;;4993002;28;20667;-73
2023/06/01 00:05:07;;;;;;;6.83;6.50;;;19.60;9.40;;;;;;4994000;28;20174;-74
2023/06/01 00:07:33;;;;;;;7.87;7.37;;;19.60;9.70;;;;;;4992441;28;20178;-74
2023/06/01 00:10:02;;;;;;;7.27;6.77;;;19.60;9.60;;;;;;4992931;28;20170;-73
2023/06/01 00:12:28;;;;;;;7.90;7.40;;;19.60;9.50;;;;;;4992959;28;20217;-73
2023/06/01 00:14:54;;;;;;;7.00;6.60;;;19.60;9.50;;;;;;4993255;28;20424;-72
2023/06/01 00:17:22;;;;;;;8.37;7.87;;;19.50;9.70;;;;;;4993436;28;20221;-72
2023/06/01 00:19:48;;;;;;;8.00;7.30;;;19.50;9.70;;;;;;4998546;28;20410;-71
2023/06/01 00:22:15;;;;;;;8.60;8.00;;;19.50;9.60;;;;;;4994239;28;20928;-74
2023/06/01 00:24:41;;;;;;;8.10;7.60;;;19.50;9.90;;;;;;4992572;28;20485;-73
2023/06/01 00:27:07;;;;;;;7.60;7.20;;;19.50;9.70;;;;;;4993915;28;20976;-73
2023/06/01 00:29:33;;;;;;;7.40;6.90;;;19.40;9.70;;;;;;4993672;28;20173;-73
2023/06/01 00:31:58;;;;;;;8.57;7.87;;;19.40;9.70;;;;;;4993732;28;20444;-74
2023/06/01 00:34:24;;;;;;;8.40;7.93;;;19.40;9.70;;;;;;5005348;28;20178;-73
2023/06/01 00:36:49;;;;;;;8.00;7.50;;;19.40;9.80;;;;;;4998769;28;20202;-73
2023/06/01 00:39:15;;;;;;;7.77;7.10;;;19.40;10.00;;;;;;5012001;28;20257;-73
2023/06/01 00:41:40;;;;;;;8.10;7.60;;;19.40;10.00;;;;;;5017967;28;20162;-72
2023/06/01 00:44:06;;;;;;;8.17;7.63;;;19.40;10.10;;;;;;5017262;28;20190;-73
2023/06/01 00:46:31;;;;;;;9.23;8.43;;;19.40;10.10;;;;;;5015409;28;20178;-74
2023/06/01 00:48:58;;;;;;;8.50;7.90;;;19.40;10.70;;;;;;5017880;28;20154;-73
2023/06/01 00:51:24;;;;;;;9.43;8.43;;;19.40;11.00;;;;;;5018427;28;20182;-70
2023/06/01 00:53:50;;;;;;;8.33;7.83;;;19.40;11.10;;;;;;5015592;28;20459;-73
2023/06/01 00:56:17;;;;;;;9.13;8.53;;;19.40;10.90;;;;;;5016118;28;20205;-71
2023/06/01 00:58:43;;;;;;;8.10;7.60;;;19.30;10.70;;;;;;5018648;28;20456;-73
2023/06/01 01:01:18;;;;;;;7.93;7.53;;;19.30;10.40;;;;;;5017367;28;20441;-71
2023/06/01 01:03:46;;;;;;;7.87;7.30;;;19.30;10.60;;;;;;5018101;28;20425;-72
2023/06/01 01:06:30;;;;;;;8.90;8.03;;;19.30;10.80;;;;;;5017670;28;20397;-72
2023/06/01 01:09:07;;;;;;;8.70;7.90;;;19.30;10.90;;;;;;5017402;28;20417;-72
2023/06/01 01:11:34;;;;;;;9.00;8.30;;;19.00;11.70;;;;;;5016207;28;20409;-71
2023/06/01 01:14:14;;;;;;;11.00;8.23;;;18.80;12.10;;;;;;5015908;28;20453;-73
2023/06/01 01:16:53;;;;;;;8.23;7.63;;;18.60;12.20;;;;;;5010300;28;20513;-73
2023/06/01 01:19:24;;;;;;;8.97;8.40;;;18.70;12.20;;;;;;4994861;28;20980;-74
2023/06/01 01:22:07;;;;;;;8.80;8.10;;;18.80;12.10;;;;;;5004119;28;20405;-72
2023/06/01 01:24:51;;;;;;;8.27;7.87;;;18.80;12.10;;;;;;4992688;28;20421;-73
2023/06/01 01:27:38;;;;;;;8.60;8.10;;;18.80;12.20;;;;;;4991697;28;20417;-73
2023/06/01 01:30:07;;;;;;;8.57;8.03;;;18.80;12.20;;;;;;4992014;28;20447;-74
2023/06/01 01:32:35;;;;;;;8.73;8.07;;;18.80;12.20;;;;;;4991456;28;20527;-74
2023/06/01 01:35:04;;;;;;;7.90;7.50;;;18.80;12.30;;;;;;4991792;28;20823;-73
2023/06/01 01:37:29;;;;;;;8.73;8.13;;;18.80;12.20;;;;;;4991825;28;20492;-72
2023/06/01 01:39:55;;;;;;;8.97;8.40;;;18.80;12.30;;;;;;4990692;28;20476;-72
2023/06/01 01:42:20;;;;;;;8.80;8.30;;;18.80;12.20;;;;;;4991614;28;20194;-73
2023/06/01 01:44:46;;;;;;;9.20;8.70;;;18.80;12.30;;;;;;4992304;28;20174;-73
2023/06/01 01:47:25;;;;;;;8.60;8.10;;;18.50;12.70;;;;;;4992334;28;20237;-73
2023/06/01 01:49:57;;;;;;;8.93;8.23;;;18.20;13.40;;;;;;4992462;28;20433;-73
2023/06/01 01:52:32;;;;;;;9.37;8.67;;;18.10;13.70;;;;;;4990695;28;20433;-73
2023/06/01 01:54:59;;;;;;;10.00;9.27;;;18.20;13.70;;;;;;4992193;28;20429;-74
2023/06/01 01:57:26;;;;;;;9.33;8.73;;;18.20;13.50;;;;;;4992371;28;20457;-73
2023/06/01 01:59:53;;;;;;;9.30;8.80;;;18.20;13.30;;;;;;4991121;28;20436;-73
2023/06/01 02:02:18;;;;;;;9.20;8.70;;;18.30;13.40;;;;;;4992078;28;20429;-73
2023/06/01 02:04:45;;;;;;;8.67;7.87;;;18.30;13.20;;;;;;4992475;28;20421;-74
2023/06/01 02:07:11;;;;;;;8.83;7.80;;;18.30;13.50;;;;;;4990527;28;20656;-74
2023/06/01 02:09:39;;;;;;;8.97;8.37;;;18.30;13.40;;;;;;4990782;28;20423;-73
2023/06/01 02:12:05;;;;;;;8.73;8.03;;;18.20;13.70;;;;;;4990340;28;20452;-72
2023/06/01 02:14:30;;;;;;;8.33;7.93;;;18.20;13.70;;;;;;4992415;28;20500;-73
2023/06/01 02:16:56;;;;;;;9.10;8.40;;;18.30;13.70;;;;;;4992373;28;21061;-73
2023/06/01 02:19:22;;;;;;;8.93;8.43;;;18.30;14.30;;;;;;4990966;28;20181;-73
2023/06/01 02:21:47;;;;;;;8.50;8.00;;;18.30;13.60;;;;;;4993358;28;20217;-73
2023/06/01 02:24:13;;;;;;;9.10;8.40;;;18.30;13.50;;;;;;4996043;28;20225;-73
2023/06/01 02:26:39;;;;;;;8.33;7.90;;;18.30;13.60;;;;;;4994928;28;20186;-72
2023/06/01 02:29:07;;;;;;;8.80;8.30;;;18.40;13.50;;;;;;4994601;28;20313;-73
2023/06/01 02:31:34;;;;;;;9.23;8.47;;;18.30;13.40;;;;;;5010235;28;20182;-72
2023/06/01 02:34:01;;;;;;;8.60;8.10;;;18.30;13.40;;;;;;4995572;28;20873;-73
2023/06/01 02:36:28;;;;;;;9.43;8.57;;;18.40;13.40;;;;;;4996756;28;20460;-74
2023/06/01 02:38:55;;;;;;;8.70;8.20;;;18.40;13.30;;;;;;4994253;28;20785;-73
2023/06/01 02:41:21;;;;;;;8.50;8.10;;;18.40;13.60;;;;;;4995416;28;20493;-74
2023/06/01 02:43:47;;;;;;;9.40;8.40;;;18.40;13.60;;;;;;4995764;28;20437;-74
2023/06/01 02:46:12;;;;;;;7.83;7.40;;;18.40;13.60;;;;;;4996346;28;20449;-73
2023/06/01 02:48:38;;;;;;;9.57;8.97;;;18.30;13.60;;;;;;4994594;28;20185;-74
2023/06/01 02:51:05;;;;;;;8.40;8.00;;;18.40;13.70;;;;;;4994276;28;20212;-75
2023/06/01 02:53:31;;;;;;;9.80;8.60;;;18.40;13.90;;;;;;4996279;28;20562;-75
2023/06/01 02:55:56;;;;;;;8.90;8.40;;;18.40;14.00;;;;;;5000890;28;20544;-72
2023/06/01 02:58:22;;;;;;;8.87;8.27;;;18.40;13.90;;;;;;5003907;28;20438;-73
2023/06/01 03:00:48;;;;;;;9.20;8.50;;;18.40;13.80;;;;;;5003960;28;20174;-73
2023/06/01 03:03:13;;;;;;;8.57;8.17;;;18.20;14.50;;;;;;4999937;28;20273;-73
2023/06/01 03:05:39;;;;;;;8.83;8.10;;;18.20;14.20;;;;;;5002555;28;20197;-71
2023/06/01 03:08:08;;;;;;;9.23;8.73;;;18.20;14.10;;;;;;5016338;28;20196;-72
2023/06/01 03:10:34;;;;;;;8.67;7.97;;;18.20;14.00;;;;;;4998408;28;20432;-73
2023/06/01 03:13:00;;;;;;;9.77;9.13;;;18.20;14.00;;;;;;4994816;28;20452;-73
2023/06/01 03:15:27;;;;;;;9.20;8.50;;;18.20;13.90;;;;;;4995636;28;20186;-73
2023/06/01 03:17:52;;;;;;;9.80;8.87;;;18.20;13.90;;;;;;4995557;28;20201;-73
2023/06/01 03:20:18;;;;;;;9.90;9.00;;;18.20;14.00;;;;;;4994951;28;20419;-74
2023/06/01 03:22:45;;;;;;;8.10;7.70;;;18.20;14.10;;;;;;4993406;28;20194;-75
2023/06/01 03:25:12;;;;;;;9.63;8.93;;;18.10;14.10;;;;;;4994883;28;20175;-74
2023/06/01 03:27:39;;;;;;;8.43;8.00;;;18.10;14.10;;;;;;4994093;28;20471;-73
2023/06/01 03:30:09;;;;;;;9.47;8.93;;;18.10;14.30;;;;;;4994738;28;20874;-72
2023/06/01 03:32:36;;;;;;;9.70;8.90;;;18.00;14.40;;;;;;4993443;28;20484;-72
2023/06/01 03:35:03;;;;;;;9.50;8.97;;;18.00;14.20;;;;;;4994314;28;20507;-73
2023/06/01 03:37:28;;;;;;;9.83;9.10;;;18.00;14.40;;;;;;4994130;28;20507;-73
2023/06/01 03:39:54;;;;;;;8.73;8.13;;;18.00;14.60;;;;;;4994128;28;20461;-73
2023/06/01 03:42:19;;;;;;;9.30;8.70;;;17.90;14.80;;;;;;4993608;28;20198;-72
2023/06/01 03:44:45;;;;;;;9.07;8.47;;;17.80;15.00;;;;;;4993379;28;20205;-72
2023/06/01 03:47:10;;;;;;;9.27;8.77;;;17.80;15.20;;;;;;4994529;28;20189;-73
2023/06/01 03:49:36;;;;;;;8.57;7.97;;;17.70;15.30;;;;;;4993452;28;20186;-73
2023/06/01 03:52:01;;;;;;;7.83;7.43;;;17.80;15.40;;;;;;4992602;28;20210;-72
2023/06/01 03:54:27;;;;;;;8.70;8.20;;;17.80;15.40;;;;;;4993558;28;20407;-73
2023/06/01 03:56:53;;;;;;;8.97;8.40;;;17.70;15.50;;;;;;4993780;28;20568;-72
2023/06/01 03:59:19;;;;;;;8.67;8.07;;;17.70;15.50;;;;;;4993728;28;20185;-72
2023/06/01 04:01:48;;;;;;;8.53;7.93;;;17.70;15.60;;;;;;4991320;28;20282;-74
2023/06/01 04:04:16;;;;;;;9.43;8.50;;;17.80;15.80;;;;;;4992243;28;20496;-74
2023/06/01 04:06:44;;;;;;;9.80;8.80;;;17.80;15.80;;;;;;4993292;28;20938;-74
2023/06/01 04:09:11;;;;;;;8.80;8.10;;;17.80;15.80;;;;;;4992657;28;20413;-73
2023/06/01 04:11:38;;;;;;;8.83;8.23;;;17.80;15.90;;;;;;4990945;28;20414;-73
2023/06/01 04:14:04;;;;;;;7.83;7.43;;;17.80;15.90;;;;;;4991646;28;20417;-72
2023/06/01 04:16:30;;;;;;;9.50;8.90;;;17.80;15.90;;;;;;5006674;28;20535;-73
2023/06/01 04:18:56;;;;;;;9.50;8.87;;;17.80;15.90;;;;;;4991252;28;20420;-74
2023/06/01 04:21:22;;;;;;;9.37;8.87;;;17.80;15.90;;;;;;4991555;28;20174;-74
2023/06/01 04:23:48;;;;;;;9.63;8.93;;;17.80;15.90;;;;;;4989648;28;20216;-73
2023/06/01 04:26:15;;;;;;;9.77;9.20;;;17.80;15.90;;;;;;4990547;28;20920;-74
2023/06/01 04:28:43;;;;;;;9.27;8.77;;;17.80;15.90;;;;;;4993041;28;20410;-74
2023/06/01 04:31:20;;;;;;;9.77;8.90;;;17.80;16.00;;;;;;4992921;28;20935;-73
2023/06/01 04:33:52;;;;;;;9.67;9.10;;;17.90;16.10;;;;;;4991309;28;20468;-73
2023/06/01 04:36:20;;;;;;;9.40;8.90;;;17.90;16.10;;;;;;4993300;28;20461;-74
2023/06/01 04:38:53;;;;;;;10.70;9.70;;;17.90;16.40;;;;;;4992775;28;20908;-74
2023/06/01 04:41:21;;;;;;;9.40;8.60;;;17.90;16.20;;;;;;4990255;28;20417;-72
2023/06/01 04:43:51;;;;;;;9.90;9.30;;;17.70;16.20;;;;;;4992721;28;20476;-74
2023/06/01 04:46:23;;;;;;;10.43;9.50;;;17.60;16.50;;;;;;4991786;28;20418;-73
2023/06/01 04:48:51;;;;;;;9.33;8.83;;;17.60;16.80;;;;;;4991266;28;20415;-74
2023/06/01 04:51:18;;;;;;;10.10;9.50;;;17.60;16.80;;;;;;4990681;28;20559;-75
2023/06/01 04:53:43;;;;;;;8.80;8.30;;;17.70;17.10;;;;;;4991941;28;20445;-74
2023/06/01 04:56:09;;;;;;;9.67;8.87;;;17.80;16.60;;;;;;4992825;28;20971;-74
2023/06/01 04:58:34;;;;;;;10.50;9.57;;;17.80;16.60;;;;;;4993191;28;20170;-74
2023/06/01 05:01:00;;;;;;;9.90;9.17;;;17.80;16.40;;;;;;4991390;28;20899;-73
2023/06/01 05:03:25;;;;;;;10.17;9.47;;;17.70;16.70;;;;;;4992721;28;20193;-73
2023/06/01 05:05:51;;;;;;;10.70;9.80;;;17.50;16.90;;;;;;4990779;28;20173;-73
2023/06/01 05:08:16;;;;;;;16.70;10.10;;;17.50;16.90;;;;;;4992338;28;20261;-73
2023/06/01 05:10:42;;;;;;;9.10;8.60;;;17.40;17.00;;;;;;4992830;28;20206;-73
2023/06/01 05:13:07;;;;;;;10.23;9.53;;;17.50;17.20;;;;;;4991260;28;20720;-74
2023/06/01 05:15:33;;;;;;;9.50;8.60;;;17.50;17.70;;;;;;4992765;28;20197;-74
2023/06/01 05:17:58;;;;;;;9.10;8.60;;;17.60;17.20;;;;;;4990724;28;20256;-72
2023/06/01 05:20:24;;;;;;;9.43;8.73;;;17.70;17.10;;;;;;4992609;28;20178;-74
2023/06/01 05:22:49;;;;;;;10.57;9.97;;;17.80;16.90;;;;;;4991746;28;20202;-73
2023/06/01 05:25:15;;;;;;;10.00;9.43;;;17.90;17.20;;;;;;4993114;28;20565;-74
2023/06/01 05:27:40;;;;;;;10.60;9.77;;;18.00;16.90;;;;;;4992393;28;20546;-71
2023/06/01 05:30:06;;;;;;;10.63;9.73;;;17.90;16.80;;;;;;4992516;28;20540;-73
2023/06/01 05:32:32;;;;;;;10.00;9.30;;;17.90;17.10;;;;;;4991270;28;20198;-73
2023/06/01 05:34:57;;;;;;;9.17;8.47;;;17.80;17.20;;;;;;4990185;28;21013;-73
2023/06/01 05:37:23;;;;;;;9.53;8.93;;;17.90;17.10;;;;;;4988584;28;20206;-73
2023/06/01 05:39:48;;;;;;;9.40;8.63;;;18.00;17.40;;;;;;4989909;28;20185;-73
2023/06/01 05:42:14;;;;;;;9.20;8.70;;;18.10;17.60;;;;;;4990847;28;20198;-73
2023/06/01 05:44:40;;;;;;;10.40;8.63;;;18.20;17.50;;;;;;4978955;28;20288;-73
2023/06/01 05:47:05;;;;;;;9.07;8.20;;;18.20;17.30;;;;;;4984846;28;20182;-72
2023/06/01 05:49:31;;;;;;;8.90;8.30;;;18.30;17.00;;;;;;4977107;28;20676;-73
2023/06/01 05:51:58;;;;;;;9.37;8.87;;;18.40;16.50;;;;;;4985394;28;20186;-71
2023/06/01 05:54:23;;;;;;;9.53;8.93;;;18.40;16.60;;;;;;4989921;28;20198;-72
2023/06/01 05:56:49;;;;;;;10.67;9.90;;;18.50;16.60;;;;;;4992579;28;20503;-73
2023/06/01 05:59:15;;;;;;;9.43;8.90;;;18.50;17.10;;;;;;4985516;28;20162;-74
2023/06/01 06:01:42;;;;;;;9.67;8.80;;;18.50;17.20;;;;;;4973908;28;20166;-73
2023/06/01 06:04:07;;;;;;;8.17;7.67;;;18.60;17.50;;;;;;4981394;28;20319;-74
2023/06/01 06:06:33;;;;;;;9.50;8.80;;;18.60;16.20;;;;;;4975767;28;20847;-74
2023/06/01 06:08:58;;;;;;;9.10;8.30;;;18.60;17.00;;;;;;4975541;28;20190;-74
2023/06/01 06:11:24;;;;;;;8.63;8.00;;;18.60;16.50;;;;;;4975425;28;20661;-73
2023/06/01 06:13:50;;;;;;;9.43;8.63;;;18.50;16.40;;;;;;4975528;28;20218;-73
2023/06/01 06:16:16;;;;;;;9.57;8.73;;;18.50;16.40;;;;;;4976207;28;20269;-74
2023/06/01 06:18:41;;;;;;;9.37;8.67;;;18.40;17.90;;;;;;4985890;28;20425;-74
2023/06/01 06:21:07;;;;;;;8.90;8.40;;;18.50;17.20;;;;;;4994833;28;20186;-74
2023/06/01 06:23:32;;;;;;;9.37;8.47;;;18.50;17.50;;;;;;4994827;28;20206;-73
2023/06/01 06:25:58;;;;;;;8.93;8.30;;;18.60;17.00;;;;;;4995610;28;20185;-74
2023/06/01 06:28:24;;;;;;;10.23;9.27;;;18.60;16.60;;;;;;4995588;28;20683;-74
2023/06/01 06:30:50;;;;;;;10.10;9.10;;;18.60;16.70;;;;;;4995215;28;20405;-75
2023/06/01 06:33:16;;;;;;;9.13;8.53;;;18.50;16.90;;;;;;4999315;28;20202;-72
2023/06/01 06:35:42;;;;;;;9.53;8.90;;;18.60;16.80;;;;;;4994871;28;20424;-72
2023/06/01 06:38:08;;;;;;;10.47;9.77;;;18.60;16.80;;;;;;4993835;28;20170;-73
2023/06/01 06:40:33;;;;;;;8.87;8.37;;;18.60;16.80;;;;;;4994049;28;20420;-74
2023/06/01 06:42:59;;;;;;;10.07;8.90;;;18.70;16.50;;;;;;4994785;28;20205;-73
2023/06/01 06:45:24;;;;;;;9.57;8.93;;;18.70;16.30;;;;;;4995391;28;20170;-73
2023/06/01 06:47:50;;;;;;;11.57;10.37;;;18.80;16.10;;;;;;4994925;28;20181;-73
2023/06/01 06:50:15;;;;;;;9.47;8.77;;;18.80;16.10;;;;;;4995214;28;20201;-73
2023/06/01 06:52:41;;;;;;;9.77;9.17;;;18.80;16.10;;;;;;4992505;28;20277;-73
2023/06/01 06:55:07;;;;;;;8.93;8.40;;;18.90;16.20;;;;;;4995096;28;20258;-72
2023/06/01 06:57:34;;;;;;;10.13;9.50;;;19.00;16.50;;;;;;4994640;28;20202;-71
2023/06/01 07:00:00;;;;;;;9.20;8.40;;;19.00;15.90;;;;;;4994335;28;20968;-72
2023/06/01 07:02:26;;;;;;;9.00;8.27;;;19.00;15.70;;;;;;4993620;28;20935;-72
2023/06/01 07:04:51;;;;;;;10.70;9.80;;;19.10;15.80;;;;;;4994516;28;20501;-72
2023/06/01 07:07:17;;;;;;;9.50;9.00;;;19.10;15.60;;;;;;4994649;28;20832;-72
2023/06/01 07:09:43;;;;;;;9.77;9.20;;;19.10;16.00;;;;;;4995230;28;20174;-74
2023/06/01 07:12:09;;;;;;;9.67;9.17;;;19.20;16.10;;;;;;4994114;28;20460;-73
2023/06/01 07:14:34;;;;;;;10.30;9.50;;;19.30;16.80;;;;;;4994748;28;20166;-74
2023/06/01 07:17:00;;;;;;;9.87;9.10;;;19.30;16.70;;;;;;4994698;28;20209;-73
2023/06/01 07:19:32;;;;;;;10.13;9.37;;;19.40;16.00;;;;;;4993687;28;20326;-73
2023/06/01 07:21:58;;;;;;;9.47;8.83;;;19.40;17.00;;;;;;4994030;28;20237;-73
2023/06/01 07:24:25;;;;;;;10.77;9.93;;;19.40;15.90;;;;;;4995196;28;20452;-72
2023/06/01 07:26:51;;;;;;;10.87;9.80;;;19.50;15.70;;;;;;4993443;28;20463;-73
2023/06/01 07:29:17;;;;;;;11.00;9.90;;;19.60;15.90;;;;;;4993149;28;20863;-73
2023/06/01 07:31:43;;;;;;;10.97;9.97;;;19.70;16.30;;;;;;4994366;28;20253;-72
2023/06/01 07:34:09;;;;;;;9.23;8.73;;;19.70;16.30;;;;;;4994443;28;20445;-73
2023/06/01 07:36:36;;;;;;;10.60;10.00;;;19.70;16.30;;;;;;4994521;28;20516;-73
2023/06/01 07:39:05;;;;;;;10.07;9.57;;;19.70;15.90;;;;;;4994141;28;20174;-72
2023/06/01 07:41:32;;;;;;;10.83;9.50;;;19.80;15.90;;;;;;4992571;28;20455;-72
2023/06/01 07:43:57;;;;;;;9.57;9.10;;;19.90;15.10;;;;;;4994418;28;20479;-73
2023/06/01 07:46:22;;;;;;;10.17;9.40;;;19.80;16.10;;;;;;4994584;28;20919;-75
2023/06/01 07:48:48;;;;;;;10.67;10.00;;;19.90;15.90;;;;;;4993878;28;20253;-75
2023/06/01 07:51:14;;;;;;;10.67;10.03;;;19.90;15.20;;;;;;4992650;28;20176;-75
2023/06/01 07:53:39;;;;;;;11.00;10.30;;;19.90;15.20;;;;;;4993984;28;20186;-74
2023/06/01 07:56:05;;;;;;;10.50;9.60;;;20.00;15.20;;;;;;4993925;28;20283;-73
2023/06/01 07:58:30;;;;;;;10.33;9.63;;;20.10;15.10;;;;;;4993902;28;20602;-73
2023/06/01 08:00:56;;;;;;;11.20;10.70;;;20.10;14.90;;;;;;4993943;28;20184;-74
2023/06/01 08:03:25;;;;;;;15.47;14.17;;;20.20;14.60;;;;;;4992975;28;20288;-73
2023/06/01 08:05:54;;;;;;;11.97;10.57;;;20.20;14.50;;;;;;4993691;28;20197;-74
2023/06/01 08:08:20;;;;;;;10.80;10.00;;;20.20;14.60;;;;;;4993757;28;20472;-73
2023/06/01 08:10:46;;;;;;;10.47;9.67;;;20.30;14.60;;;;;;4993255;28;20417;-73
2023/06/01 08:13:12;;;;;;;10.57;9.87;;;20.30;14.60;;;;;;4992905;28;20461;-74
2023/06/01 08:15:38;;;;;;;10.83;10.07;;;20.40;14.60;;;;;;4994696;28;20213;-73
2023/06/01 08:18:06;;;;;;;11.07;10.07;;;20.40;14.20;;;;;;4993340;28;20489;-74
2023/06/01 08:20:31;;;;;;;10.57;9.63;;;20.50;14.30;;;;;;4992985;28;20249;-74
2023/06/01 08:22:57;;;;;;;9.97;9.13;;;20.60;13.50;;;;;;4992804;28;20525;-74
2023/06/01 08:25:23;;;;;;;9.43;8.83;;;20.60;13.90;;;;;;4991932;28;20170;-73
2023/06/01 08:27:49;;;;;;;10.47;9.67;;;20.90;13.70;;;;;;4993292;28;20166;-73
2023/06/01 08:30:15;;;;;;;10.47;9.77;;;21.00;13.70;;;;;;4993134;28;20714;-75
2023/06/01 08:32:41;;;;;;;11.53;10.50;;;21.00;13.70;;;;;;4992316;28;20437;-73
2023/06/01 08:35:07;;;;;;;9.90;9.20;;;20.90;13.70;;;;;;4993162;28;20220;-73
2023/06/01 08:37:34;;;;;;;10.97;10.37;;;20.90;13.70;;;;;;4992960;28;20205;-74
2023/06/01 08:39:59;;;;;;;10.97;10.07;;;21.00;13.80;;;;;;4992031;28;20425;-74
2023/06/01 08:42:34;;;;;;;10.20;9.57;;;21.00;13.70;;;;;;4992514;28;20958;-74
2023/06/01 08:45:04;;;;;;;10.70;9.80;;;21.20;13.90;;;;;;4992008;28;20173;-75
2023/06/01 08:47:31;;;;;;;10.23;9.63;;;21.20;13.30;;;;;;4992912;28;20784;-74
2023/06/01 08:49:58;;;;;;;10.17;9.40;;;21.30;13.20;;;;;;4993016;28;20414;-73
2023/06/01 08:52:28;;;;;;;10.73;10.03;;;21.40;14.00;;;;;;4992142;28;21010;-73
2023/06/01 08:54:54;;;;;;;10.37;9.67;;;21.40;13.10;;;;;;4992950;28;20422;-73
2023/06/01 08:57:20;;;;;;;9.43;8.70;;;21.50;12.90;;;;;;4992985;28;20475;-73
2023/06/01 08:59:46;;;;;;;10.47;9.30;;;21.60;13.00;;;;;;4992924;28;20416;-73
2023/06/01 09:02:12;;;;;;;9.87;9.20;;;21.60;12.90;;;;;;4992107;28;20186;-73
2023/06/01 09:04:42;;;;;;;10.60;9.73;;;21.50;13.00;;;;;;4992947;28;20444;-73
2023/06/01 09:07:07;;;;;;;10.63;10.03;;;21.60;13.20;;;;;;4991046;28;20426;-73
2023/06/01 09:09:33;;;;;;;11.77;11.07;;;21.60;13.50;;;;;;4992649;28;20421;-74
2023/06/01 09:12:18;;;;;;;10.53;9.77;;;21.60;12.80;;;;;;4991609;28;20256;-74
2023/06/01 09:14:43;;;;;;;11.90;11.00;;;21.70;12.60;;;;;;4992273;28;20193;-74
2023/06/01 09:17:14;;;;;;;11.37;10.67;;;21.70;12.70;;;;;;4992397;28;20472;-74
2023/06/01 09:19:44;;;;;;;10.57;9.87;;;21.80;12.60;;;;;;4991380;28;20180;-74
2023/06/01 09:22:11;;;;;;;12.33;11.53;;;21.80;12.60;;;;;;4991926;28;20429;-74
2023/06/01 09:24:37;;;;;;;11.63;10.63;;;22.00;11.70;;;;;;4992569;28;20439;-74
2023/06/01 09:27:03;;;;;;;14.83;10.70;;;22.00;11.70;;;;;;4992367;28;20919;-74
2023/06/01 09:29:29;;;;;;;12.17;11.37;;;22.10;11.90;;;;;;4992043;28;20178;-75
2023/06/01 09:31:55;;;;;;;11.90;10.90;;;22.10;11.80;;;;;;4990463;28;20959;-75
2023/06/01 09:34:21;;;;;;;10.90;10.20;;;22.40;11.50;;;;;;5000044;28;20253;-74
2023/06/01 09:36:52;;;;;;;13.57;12.57;;;22.80;10.80;;;;;;5002240;28;20209;-75
2023/06/01 09:39:20;;;;;;;11.83;10.83;;;22.80;11.10;;;;;;4992371;28;20464;-74
2023/06/01 09:41:58;;;;;;;14.50;10.63;;;22.80;10.80;;;;;;4990356;28;20469;-73
2023/06/01 09:44:26;;;;;;;11.07;10.47;;;22.70;10.80;;;;;;4992565;28;20417;-74
2023/06/01 09:46:57;;;;;;;12.23;11.43;;;22.80;11.40;;;;;;4992352;28;20416;-74
2023/06/01 09:49:34;;;;;;;12.77;11.33;;;22.90;11.20;;;;;;4992245;28;20423;-73
2023/06/01 09:52:06;;;;;;;12.90;11.60;;;23.00;11.10;;;;;;4991895;28;20483;-73
2023/06/01 09:54:49;;;;;;;12.60;11.70;;;23.10;10.80;;;;;;4991071;28;20834;-74
2023/06/01 09:57:24;;;;;;;11.67;10.83;;;23.30;10.50;;;;;;4992109;28;20469;-73
2023/06/01 09:59:49;;;;;;;12.43;11.73;;;23.60;9.70;;;;;;4992117;28;20463;-73
2023/06/01 10:02:18;;;;;;;13.23;12.33;;;23.80;9.90;;;;;;4991635;28;20437;-74
2023/06/01 10:04:58;;;;;;;12.77;11.83;;;24.10;9.10;;;;;;4992182;28;20170;-74
2023/06/01 10:07:26;;;;;;;13.00;12.30;;;24.20;9.10;;;;;;4992457;28;20413;-74
2023/06/01 10:10:02;;;;;;;12.93;11.97;;;24.30;8.90;;;;;;4992250;28;20453;-75
2023/06/01 10:12:28;;;;;;;12.33;10.93;;;24.60;9.00;;;;;;4991356;28;20456;-74
2023/06/01 10:14:54;;;;;;;11.73;11.03;;;24.70;8.80;;;;;;4992310;28;20421;-73
2023/06/01 10:17:20;;;;;;;11.60;10.90;;;24.80;8.30;;;;;;4992125;28;21010;-75
2023/06/01 10:19:46;;;;;;;11.30;10.70;;;24.90;7.80;;;;;;4990789;28;20190;-74
2023/06/01 10:22:12;;;;;;;11.80;10.90;;;25.00;8.20;;;;;;4991456;28;20469;-75
2023/06/01 10:24:41;;;;;;;10.43;9.73;;;25.10;7.60;;;;;;4991987;28;20791;-75
2023/06/01 10:27:10;;;;;;;11.63;10.83;;;25.30;7.70;;;;;;4991923;28;20420;-74
2023/06/01 10:29:36;;;;;;;11.67;11.10;;;25.40;7.80;;;;;;4992168;28;20420;-75
2023/06/01 10:32:02;;;;;;;13.57;12.47;;;25.50;7.50;;;;;;4991080;28;20436;-74
2023/06/01 10:34:42;;;;;;;11.67;11.07;;;25.60;6.40;;;;;;4992206;28;20420;-74
2023/06/01 10:37:08;;;;;;;11.47;10.87;;;25.70;6.40;;;;;;4992103;28;20201;-75
2023/06/01 10:39:34;;;;;;;11.57;10.83;;;25.70;6.20;;;;;;4990606;28;20731;-76
2023/06/01 10:42:12;;;;;;;11.80;11.00;;;25.70;5.70;;;;;;4991883;28;20166;-75
2023/06/01 10:44:38;;;;;;;12.50;11.70;;;25.60;4.80;;;;;;4995378;28;20471;-73
2023/06/01 10:47:06;;;;;;;10.80;10.20;;;25.70;2.70;;;;;;4996076;28;20422;-73
2023/06/01 10:49:47;;;;;;;12.57;11.50;;;25.80;3.50;;;;;;5003510;28;20182;-76
2023/06/01 10:52:34;;;;;;;11.70;11.00;;;25.90;3.40;;;;;;5008529;28;20448;-74
2023/06/01 10:55:13;;;;;;;11.07;10.37;;;25.90;3.20;;;;;;5000936;28;20433;-74
2023/06/01 10:57:40;;;;;;;10.90;10.40;;;25.80;3.00;;;;;;5000724;28;20544;-74
2023/06/01 11:00:15;;;;;;;11.40;10.47;;;25.70;3.00;;;;;;4998638;28;20716;-72
2023/06/01 11:02:59;;;;;;;11.80;11.10;;;25.70;3.70;;;;;;4995824;28;20943;-72
2023/06/01 11:05:46;;;;;;;11.37;10.57;;;25.60;4.90;;;;;;4999202;28;20416;-72
2023/06/01 11:08:21;;;;;;;12.37;11.30;;;25.50;5.10;;;;;;5000260;28;20499;-74
2023/06/01 11:10:54;;;;;;;11.97;11.20;;;25.60;4.80;;;;;;4998084;28;20416;-74
2023/06/01 11:13:29;;;;;;;12.47;11.67;;;25.70;4.10;;;;;;4995677;28;20473;-73
2023/06/01 11:16:07;;;;;;;11.80;11.20;;;25.60;4.00;;;;;;4996674;28;20447;-73
2023/06/01 11:18:57;;;;;;;11.73;11.13;;;25.50;3.80;;;;;;4995709;28;20927;-73
2023/06/01 11:21:24;;;;;;;11.73;11.17;;;25.50;3.20;;;;;;5000618;28;20413;-73
2023/06/01 11:23:55;;;;;;;11.87;11.20;;;25.50;4.10;;;;;;4994911;28;20429;-74
2023/06/01 11:26:24;;;;;;;11.10;10.50;;;25.40;5.10;;;;;;4996298;28;20520;-73
2023/06/01 11:28:52;;;;;;;12.17;11.13;;;25.40;4.20;;;;;;4995098;28;20430;-73
2023/06/01 11:31:19;;;;;;;11.90;11.30;;;25.50;3.80;;;;;;4994609;28;20421;-75
2023/06/01 11:33:56;;;;;;;11.63;11.03;;;25.50;3.90;;;;;;4995039;28;20512;-74
2023/06/01 11:36:26;;;;;;;12.30;11.47;;;25.30;3.80;;;;;;4994909;28;20460;-73
2023/06/01 11:38:57;;;;;;;12.27;11.57;;;25.20;4.60;;;;;;4994756;28;20442;-74
2023/06/01 11:41:23;;;;;;;12.00;11.40;;;25.10;4.90;;;;;;4994315;28;20480;-72
2023/06/01 11:43:56;;;;;;;11.70;11.00;;;25.00;4.80;;;;;;4994642;28;20452;-73
2023/06/01 11:46:23;;;;;;;13.50;11.43;;;24.90;5.40;;;;;;4994320;28;20171;-73
2023/06/01 11:49:01;;;;;;;12.67;11.97;;;24.80;5.30;;;;;;4994075;28;20505;-73
2023/06/01 11:51:27;;;;;;;12.40;11.70;;;24.70;5.50;;;;;;4993827;28;20413;-74
2023/06/01 11:53:54;;;;;;;11.90;11.10;;;24.70;5.60;;;;;;4994164;28;20503;-74
2023/06/01 11:56:21;;;;;;;12.43;11.63;;;24.60;5.50;;;;;;4994684;28;20488;-72
2023/06/01 11:58:47;;;;;;;12.33;11.63;;;24.60;5.70;;;;;;4994122;28;20441;-73
2023/06/01 12:01:13;;;;;;;12.40;11.70;;;24.70;5.50;;;;;;4993383;28;20493;-73
2023/06/01 12:03:45;;;;;;;12.40;11.80;;;24.80;4.90;;;;;;4993877;28;20469;-72
2023/06/01 12:06:21;;;;;;;12.20;11.40;;;24.80;4.80;;;;;;4993488;28;20417;-73
2023/06/01 12:08:50;;;;;;;11.73;11.13;;;24.70;4.50;;;;;;4993278;28;20436;-72
2023/06/01 12:11:19;;;;;;;11.50;10.90;;;24.70;4.10;;;;;;4992770;28;20420;-72
2023/06/01 12:13:47;;;;;;;12.70;11.40;;;24.70;3.50;;;;;;4990236;28;20555;-72
2023/06/01 12:16:13;;;;;;;11.70;11.10;;;24.80;2.90;;;;;;4993165;28;20947;-72
2023/06/01 12:18:38;;;;;;;11.47;10.70;;;25.00;3.30;;;;;;4993063;28;20413;-72
2023/06/01 12:21:11;;;;;;;11.60;10.90;;;25.30;3.40;;;;;;4992488;28;20176;-73
2023/06/01 12:23:37;;;;;;;12.10;11.33;;;25.40;3.20;;;;;;4993196;28;20627;-73
2023/06/01 12:26:03;;;;;;;11.20;10.50;;;25.50;3.20;;;;;;4992784;28;20468;-72
2023/06/01 12:28:46;;;;;;;11.30;10.60;;;25.50;2.70;;;;;;4993062;28;20257;-72
2023/06/01 12:31:12;;;;;;;11.40;10.60;;;25.40;3.10;;;;;;4992291;28;20421;-73
2023/06/01 12:33:40;;;;;;;11.30;10.50;;;25.30;3.20;;;;;;4992937;28;20778;-73
2023/06/01 12:36:07;;;;;;;11.07;10.47;;;25.10;3.30;;;;;;4992818;28;20424;-73
2023/06/01 12:38:51;;;;;;;11.00;10.40;;;25.10;3.50;;;;;;4991738;28;20425;-73
2023/06/01 12:41:18;;;;;;;11.57;10.87;;;25.10;3.00;;;;;;4992044;28;20881;-73
2023/06/01 12:43:48;;;;;;;12.20;11.07;;;25.10;3.00;;;;;;4992342;28;20520;-73